createdAt,value
2023-03-11T00:00:40.018Z,98482.91
2023-03-11T00:03:08.864Z,98477.78
2023-03-11T00:05:38.494Z,98487.06
2023-03-11T00:08:07.206Z,98505.28
2023-03-11T00:10:42.331Z,98497.31
2023-03-11T00:13:11.777Z,98503.59
2023-03-11T00:15:39.037Z,98511.00
2023-03-11T00:18:06.019Z,98511.31
2023-03-11T00:20:35.482Z,98528.41
2023-03-11T00:23:02.846Z,98521.38
2023-03-11T00:25:30.730Z,98518.38
2023-03-11T00:27:58.140Z,98524.22
2023-03-11T00:30:25.452Z,98527.34
2023-03-11T00:32:54.752Z,98526.47
2023-03-11T00:35:24.512Z,98535.09
2023-03-11T00:37:55.262Z,98524.84
2023-03-11T00:40:23.973Z,98522.44
2023-03-11T00:42:50.635Z,98526.47
2023-03-11T00:45:17.254Z,98532.53
2023-03-11T00:47:44.047Z,98523.72
2023-03-11T00:50:15.566Z,98529.94
2023-03-11T00:52:41.972Z,98540.06
2023-03-11T00:55:08.661Z,98540.91
2023-03-11T00:57:35.023Z,98549.31
2023-03-11T01:00:02.015Z,98553.00
2023-03-11T01:02:28.762Z,98546.22
2023-03-11T01:04:55.607Z,98559.34
2023-03-11T01:07:22.589Z,98558.88
2023-03-11T01:09:48.909Z,98556.69
2023-03-11T01:12:15.211Z,98571.25
2023-03-11T01:14:41.550Z,98562.63
2023-03-11T01:17:08.718Z,98562.59
2023-03-11T01:19:35.324Z,98548.28
2023-03-11T01:22:01.680Z,98557.34
2023-03-11T01:24:28.009Z,98553.50
2023-03-11T01:26:54.337Z,98547.34
2023-03-11T01:29:20.647Z,98563.94
2023-03-11T01:31:47.010Z,98560.88
2023-03-11T01:34:13.366Z,98563.41
2023-03-11T01:36:41.086Z,98557.44
2023-03-11T01:39:07.418Z,98567.28
2023-03-11T01:41:33.798Z,98561.66
2023-03-11T01:44:02.286Z,98560.47
2023-03-11T01:46:59.757Z,98574.75
2023-03-11T01:49:30.490Z,98572.13
2023-03-11T01:52:03.616Z,98582.09
2023-03-11T01:54:33.457Z,98586.72
2023-03-11T01:57:05.024Z,98591.50
2023-03-11T01:59:36.338Z,98596.03
2023-03-11T02:02:12.571Z,98583.91
2023-03-11T02:04:40.664Z,98592.00
2023-03-11T02:07:10.090Z,98589.06
2023-03-11T02:09:36.526Z,98590.25
2023-03-11T02:12:05.777Z,98587.75
2023-03-11T02:14:32.939Z,98587.50
2023-03-11T02:17:00.510Z,98603.06
2023-03-11T02:19:41.149Z,98602.53
2023-03-11T02:22:09.837Z,98601.75
2023-03-11T02:25:04.318Z,98590.94
2023-03-11T02:27:35.395Z,98608.09
2023-03-11T02:30:05.303Z,98610.13
2023-03-11T02:32:35.222Z,98610.56
2023-03-11T02:35:01.809Z,98609.63
2023-03-11T02:37:28.168Z,98611.47
2023-03-11T02:40:37.871Z,98617.97
2023-03-11T02:43:14.170Z,98612.53
2023-03-11T02:45:43.327Z,98615.41
2023-03-11T02:48:11.648Z,98621.72
2023-03-11T02:50:39.876Z,98630.69
2023-03-11T02:53:06.950Z,98620.09
2023-03-11T02:55:33.624Z,98623.59
2023-03-11T02:58:00.046Z,98628.47
2023-03-11T03:00:26.709Z,98637.31
2023-03-11T03:02:59.370Z,98631.91
2023-03-11T03:05:27.278Z,98627.91
2023-03-11T03:07:53.721Z,98635.56
2023-03-11T03:10:21.603Z,98644.56
2023-03-11T03:12:48.361Z,98634.25
2023-03-11T03:15:15.930Z,98639.81
2023-03-11T03:17:43.364Z,98632.69
2023-03-11T03:20:13.932Z,98644.34
2023-03-11T03:22:44.495Z,98641.72
2023-03-11T03:25:14.021Z,98641.16
2023-03-11T03:27:40.473Z,98630.16
2023-03-11T03:30:09.121Z,98652.50
2023-03-11T03:32:36.649Z,98652.69
2023-03-11T03:35:04.714Z,98661.44
2023-03-11T03:37:52.200Z,98665.09
2023-03-11T03:40:20.698Z,98667.88
2023-03-11T03:42:47.320Z,98669.84
2023-03-11T03:45:13.850Z,98656.31
2023-03-11T03:47:40.594Z,98663.59
2023-03-11T03:50:09.545Z,98666.78
2023-03-11T03:52:37.888Z,98674.50
2023-03-11T03:55:05.868Z,98671.88
2023-03-11T03:57:32.501Z,98675.63
2023-03-11T03:59:58.925Z,98676.56
2023-03-11T04:02:26.951Z,98679.19
2023-03-11T04:04:54.641Z,98700.41
2023-03-11T04:07:21.315Z,98695.84
2023-03-11T04:09:47.683Z,98697.34
2023-03-11T04:12:17.334Z,98697.97
2023-03-11T04:14:45.959Z,98690.25
2023-03-11T04:17:14.015Z,98713.84
2023-03-11T04:19:40.687Z,98697.16
2023-03-11T04:22:07.565Z,98701.72
2023-03-11T04:24:33.908Z,98709.75
2023-03-11T04:27:00.872Z,98701.91
2023-03-11T04:29:27.585Z,98701.16
2023-03-11T04:31:54.099Z,98694.91
2023-03-11T04:34:21.301Z,98698.28
2023-03-11T04:36:47.677Z,98696.59
2023-03-11T04:39:16.002Z,98703.19
2023-03-11T04:41:44.075Z,98704.34
2023-03-11T04:44:15.038Z,98706.19
2023-03-11T04:46:41.649Z,98709.56
2023-03-11T04:49:10.202Z,98713.28
2023-03-11T04:51:37.178Z,98709.47
2023-03-11T04:54:04.627Z,98713.47
2023-03-11T04:56:31.038Z,98715.31
2023-03-11T04:58:57.953Z,98716.91
2023-03-11T05:01:25.552Z,98712.44
2023-03-11T05:03:52.107Z,98716.81
2023-03-11T05:06:18.484Z,98719.72
2023-03-11T05:08:45.009Z,98725.78
2023-03-11T05:11:11.637Z,98718.66
2023-03-11T05:13:37.949Z,98737.78
2023-03-11T05:16:04.733Z,98725.09
2023-03-11T05:18:32.341Z,98730.59
2023-03-11T05:20:58.929Z,98736.56
2023-03-11T05:23:28.336Z,98730.22
2023-03-11T05:25:54.787Z,98738.53
2023-03-11T05:28:22.184Z,98747.81
2023-03-11T05:30:51.752Z,98751.41
2023-03-11T05:33:18.739Z,98746.59
2023-03-11T05:35:46.144Z,98756.44
2023-03-11T05:38:13.058Z,98768.94
2023-03-11T05:40:39.805Z,98776.09
2023-03-11T05:43:06.142Z,98778.81
2023-03-11T05:45:37.047Z,98772.91
2023-03-11T05:48:03.674Z,98771.59
2023-03-11T05:50:30.416Z,98778.63
2023-03-11T05:52:57.133Z,98774.97
2023-03-11T05:55:23.649Z,98777.31
2023-03-11T05:57:52.240Z,98782.34
2023-03-11T06:00:20.387Z,98778.03
2023-03-11T06:02:51.289Z,98791.38
2023-03-11T06:05:19.007Z,98777.56
2023-03-11T06:07:47.724Z,98784.31
2023-03-11T06:10:14.099Z,98795.28
2023-03-11T06:12:40.994Z,98795.28
2023-03-11T06:15:18.828Z,98796.59
2023-03-11T06:17:45.216Z,98798.59
2023-03-11T06:20:12.329Z,98793.28
2023-03-11T06:22:40.463Z,98804.34
2023-03-11T06:25:08.099Z,98806.78
2023-03-11T06:27:35.130Z,98810.22
2023-03-11T06:30:01.937Z,98819.56
2023-03-11T06:32:31.550Z,98821.25
2023-03-11T06:34:58.022Z,98827.47
2023-03-11T06:37:25.473Z,98832.38
2023-03-11T06:39:53.386Z,98828.25
2023-03-11T06:42:23.878Z,98837.38
2023-03-11T06:44:51.930Z,98847.06
2023-03-11T06:47:18.497Z,98855.72
2023-03-11T06:49:45.126Z,98856.50
2023-03-11T06:52:11.502Z,98849.22
2023-03-11T06:54:38.507Z,98859.59
2023-03-11T06:57:07.756Z,98866.97
2023-03-11T06:59:34.504Z,98861.59
2023-03-11T07:02:01.389Z,98869.84
2023-03-11T07:04:27.884Z,98860.59
2023-03-11T07:06:54.284Z,98863.66
2023-03-11T07:09:22.984Z,98881.06
2023-03-11T07:11:49.403Z,98894.13
2023-03-11T07:14:23.191Z,98903.13
2023-03-11T07:16:53.248Z,98907.66
2023-03-11T07:19:31.152Z,98918.09
2023-03-11T07:21:57.513Z,98916.84
2023-03-11T07:24:23.830Z,98922.22
2023-03-11T07:26:50.161Z,98914.22
2023-03-11T07:29:16.475Z,98921.97
2023-03-11T07:31:42.944Z,98911.56
2023-03-11T07:34:12.440Z,98921.50
2023-03-11T07:36:42.440Z,98925.81
2023-03-11T07:39:14.887Z,98924.00
2023-03-11T07:41:41.620Z,98920.19
2023-03-11T07:44:09.844Z,98927.63
2023-03-11T07:46:36.252Z,98936.09
2023-03-11T07:49:03.653Z,98945.41
2023-03-11T07:51:32.504Z,98945.16
2023-03-11T07:54:00.504Z,98950.09
2023-03-11T07:56:30.068Z,98959.25
2023-03-11T07:58:58.456Z,98955.09
2023-03-11T08:01:27.057Z,98966.59
2023-03-11T08:03:58.591Z,98970.22
2023-03-11T08:06:29.030Z,98973.59
2023-03-11T08:08:55.370Z,98986.59
2023-03-11T08:11:22.306Z,98983.81
2023-03-11T08:13:49.427Z,98988.28
2023-03-11T08:16:19.781Z,98992.66
2023-03-11T08:18:47.481Z,98997.06
2023-03-11T08:21:17.307Z,99001.19
2023-03-11T08:23:45.919Z,99002.97
2023-03-11T08:26:15.273Z,99002.44
2023-03-11T08:28:41.702Z,98995.09
2023-03-11T08:31:19.880Z,99003.28
2023-03-11T08:33:49.825Z,99008.22
2023-03-11T08:36:17.117Z,99015.91
2023-03-11T08:38:43.601Z,99012.13
2023-03-11T08:41:10.100Z,99014.56
2023-03-11T08:43:36.455Z,99006.88
2023-03-11T08:46:06.570Z,99016.53
2023-03-11T08:48:33.698Z,99012.91
2023-03-11T08:51:00.127Z,99019.44
2023-03-11T08:53:26.460Z,99020.38
2023-03-11T08:55:53.108Z,99007.84
2023-03-11T08:58:20.231Z,99015.31
2023-03-11T09:00:46.764Z,99010.84
2023-03-11T09:03:13.593Z,99022.75
2023-03-11T09:05:40.598Z,99020.28
2023-03-11T09:08:06.992Z,99027.53
2023-03-11T09:10:33.453Z,99030.34
2023-03-11T09:12:59.797Z,99026.22
2023-03-11T09:15:26.205Z,99022.06
2023-03-11T09:17:52.998Z,99022.59
2023-03-11T09:20:19.573Z,99010.97
2023-03-11T09:22:45.917Z,99025.56
2023-03-11T09:25:13.548Z,99028.75
2023-03-11T09:27:41.236Z,99016.41
2023-03-11T09:30:08.834Z,99031.59
2023-03-11T09:32:35.542Z,99027.81
2023-03-11T09:35:02.039Z,99033.22
2023-03-11T09:37:30.097Z,99027.56
2023-03-11T09:39:56.428Z,99034.44
2023-03-11T09:42:50.389Z,99041.50
2023-03-11T09:45:21.546Z,99035.63
2023-03-11T09:48:03.492Z,99038.72
2023-03-11T09:50:32.586Z,99034.88
2023-03-11T09:53:13.652Z,99032.06
2023-03-11T09:55:55.618Z,99036.47
2023-03-11T09:58:37.492Z,99033.78
2023-03-11T10:01:15.177Z,99036.16
2023-03-11T10:03:43.024Z,99036.41
2023-03-11T10:06:25.982Z,99039.97
2023-03-11T10:09:00.603Z,99041.47
2023-03-11T10:11:47.082Z,99037.66
2023-03-11T10:14:26.351Z,99047.00
2023-03-11T10:17:08.550Z,99052.56
2023-03-11T10:20:16.718Z,99049.41
2023-03-11T10:23:01.264Z,99053.00
2023-03-11T10:25:42.464Z,99041.63
2023-03-11T10:28:13.892Z,99044.06
2023-03-11T10:31:18.874Z,99056.06
2023-03-11T10:33:58.409Z,99053.16
2023-03-11T10:36:34.691Z,99056.25
2023-03-11T10:39:02.199Z,99054.28
2023-03-11T10:41:46.423Z,99066.13
2023-03-11T10:44:38.868Z,99063.97
2023-03-11T10:47:07.178Z,99061.47
2023-03-11T10:49:33.801Z,99067.59
2023-03-11T10:52:03.159Z,99065.94
2023-03-11T10:54:39.504Z,99066.09
2023-03-11T10:57:18.855Z,99072.91
2023-03-11T10:59:48.686Z,99074.88
2023-03-11T11:02:26.689Z,99083.66
2023-03-11T11:05:06.728Z,99087.69
2023-03-11T11:07:41.594Z,99081.59
2023-03-11T11:10:22.208Z,99070.88
2023-03-11T11:13:16.640Z,99064.69
2023-03-11T11:15:59.895Z,99081.22
2023-03-11T11:18:33.730Z,99086.88
2023-03-11T11:21:15.853Z,99085.88
2023-03-11T11:23:46.816Z,99075.66
2023-03-11T11:26:25.306Z,99075.66
2023-03-11T11:29:09.983Z,99077.44
2023-03-11T11:31:38.390Z,99079.22
2023-03-11T11:34:24.674Z,99087.88
2023-03-11T11:36:51.194Z,99083.41
2023-03-11T11:39:20.194Z,99089.19
2023-03-11T11:41:49.557Z,99082.75
2023-03-11T11:44:20.790Z,99072.72
2023-03-11T11:46:56.573Z,99070.56
2023-03-11T11:49:28.902Z,99056.78
2023-03-11T11:52:02.851Z,99044.34
2023-03-11T11:54:29.181Z,99037.16
2023-03-11T11:56:56.821Z,99046.47
2023-03-11T11:59:23.366Z,99036.81
2023-03-11T12:02:03.755Z,99036.97
2023-03-11T12:04:36.668Z,99044.28
2023-03-11T12:07:24.874Z,99040.50
2023-03-11T12:10:19.761Z,99039.56
2023-03-11T12:13:25.913Z,99040.88
2023-03-11T12:16:31.335Z,99042.81
2023-03-11T12:19:12.716Z,99047.06
2023-03-11T12:21:57.795Z,99034.28
2023-03-11T12:24:55.788Z,99040.66
2023-03-11T12:27:36.179Z,99052.97
2023-03-11T12:30:11.440Z,99047.50
2023-03-11T12:32:44.011Z,99031.97
2023-03-11T12:35:27.719Z,99051.06
2023-03-11T12:38:12.277Z,99052.13
2023-03-11T12:40:47.600Z,99052.97
2023-03-11T12:43:35.238Z,99050.06
2023-03-11T12:46:04.349Z,99048.81
2023-03-11T12:48:33.868Z,99045.34
2023-03-11T12:51:00.910Z,99052.81
2023-03-11T12:53:48.474Z,99058.16
2023-03-11T12:56:39.588Z,99053.50
2023-03-11T12:59:50.470Z,99059.38
2023-03-11T13:02:35.224Z,99060.22
2023-03-11T13:05:31.732Z,99059.81
2023-03-11T13:08:13.610Z,99054.00
2023-03-11T13:10:42.879Z,99052.31
2023-03-11T13:13:35.137Z,99061.78
2023-03-11T13:16:13.834Z,99057.38
2023-03-11T13:18:42.223Z,99064.53
2023-03-11T13:21:26.900Z,99057.09
2023-03-11T13:24:18.867Z,99074.28
2023-03-11T13:27:04.902Z,99067.03
2023-03-11T13:29:57.187Z,99074.50
2023-03-11T13:32:45.292Z,99084.28
2023-03-11T13:35:24.834Z,99079.75
2023-03-11T13:38:15.961Z,99080.91
2023-03-11T13:40:44.425Z,99077.84
2023-03-11T13:43:15.341Z,99078.81
2023-03-11T13:45:48.497Z,99070.00
2023-03-11T13:48:20.715Z,99082.28
2023-03-11T13:50:58.746Z,99081.13
2023-03-11T13:53:33.216Z,99078.41
2023-03-11T13:55:59.724Z,99076.28
2023-03-11T13:58:27.919Z,99084.91
2023-03-11T14:00:57.018Z,99070.19
2023-03-11T14:03:25.670Z,99084.28
2023-03-11T14:06:06.765Z,99077.13
2023-03-11T14:08:35.421Z,99071.66
2023-03-11T14:11:14.573Z,99077.31
2023-03-11T14:13:49.973Z,99064.94
2023-03-11T14:16:21.239Z,99081.84
2023-03-11T14:19:00.791Z,99072.91
2023-03-11T14:21:27.797Z,99065.75
2023-03-11T14:23:55.977Z,99061.25
2023-03-11T14:26:27.631Z,99060.50
2023-03-11T14:28:59.883Z,99076.22
2023-03-11T14:31:40.226Z,99072.91
2023-03-11T14:34:27.364Z,99069.44
2023-03-11T14:36:59.418Z,99077.09
2023-03-11T14:39:37.780Z,99075.97
2023-03-11T14:42:26.498Z,99083.69
2023-03-11T14:45:02.086Z,99088.75
2023-03-11T14:47:32.979Z,99088.00
2023-03-11T14:50:00.424Z,99077.75
2023-03-11T14:52:58.049Z,99087.38
2023-03-11T14:55:36.240Z,99076.28
2023-03-11T14:58:25.046Z,99069.56
2023-03-11T15:01:31.356Z,99077.00
2023-03-11T15:04:06.068Z,99068.22
2023-03-11T15:06:34.086Z,99071.03
2023-03-11T15:09:17.872Z,99070.19
2023-03-11T15:11:59.150Z,99089.25
2023-03-11T15:14:27.128Z,99078.16
2023-03-11T15:16:55.473Z,99078.84
2023-03-11T15:19:23.698Z,99083.97
2023-03-11T15:21:54.180Z,99077.28
2023-03-11T15:24:27.847Z,99072.69
2023-03-11T15:27:01.225Z,99084.22
2023-03-11T15:29:29.373Z,99086.75
2023-03-11T15:31:57.086Z,99086.13
2023-03-11T15:34:30.505Z,99087.47
2023-03-11T15:37:03.658Z,99088.06
2023-03-11T15:39:29.957Z,99106.38
2023-03-11T15:42:06.530Z,99100.56
2023-03-11T15:44:53.457Z,99098.81
2023-03-11T15:47:22.750Z,99092.31
2023-03-11T15:49:49.928Z,99101.63
2023-03-11T15:52:19.087Z,99086.19
2023-03-11T15:54:54.721Z,99094.88
2023-03-11T15:57:25.385Z,99100.56
2023-03-11T15:59:54.268Z,99089.81
2023-03-11T16:02:23.670Z,99099.75
2023-03-11T16:04:51.081Z,99099.31
2023-03-11T16:07:21.780Z,99107.28
2023-03-11T16:09:55.747Z,99116.28
2023-03-11T16:12:23.427Z,99109.66
2023-03-11T16:14:50.520Z,99112.47
2023-03-11T16:17:18.687Z,99115.09
2023-03-11T16:19:47.991Z,99113.97
2023-03-11T16:22:24.217Z,99108.72
2023-03-11T16:24:53.116Z,99114.69
2023-03-11T16:27:19.628Z,99113.34
2023-03-11T16:29:46.486Z,99104.91
2023-03-11T16:32:13.483Z,99115.28
2023-03-11T16:34:40.599Z,99115.34
2023-03-11T16:37:07.871Z,99113.72
2023-03-11T16:39:34.855Z,99105.53
2023-03-11T16:42:01.640Z,99115.84
2023-03-11T16:44:28.328Z,99124.56
2023-03-11T16:46:55.017Z,99120.72
2023-03-11T16:49:21.536Z,99116.53
2023-03-11T16:51:47.869Z,99125.47
2023-03-11T16:54:14.184Z,99128.97
2023-03-11T16:56:41.869Z,99130.66
2023-03-11T16:59:08.691Z,99125.91
2023-03-11T17:01:38.417Z,99134.25
2023-03-11T17:04:08.097Z,99123.59
2023-03-11T17:06:34.818Z,99119.81
2023-03-11T17:09:01.212Z,99126.97
2023-03-11T17:11:30.604Z,99128.78
2023-03-11T17:14:10.088Z,99130.56
2023-03-11T17:16:41.786Z,99135.66
2023-03-11T17:19:08.194Z,99133.97
2023-03-11T17:21:34.494Z,99128.44
2023-03-11T17:24:00.822Z,99135.50
2023-03-11T17:26:30.601Z,99139.72
2023-03-11T17:28:57.261Z,99145.56
2023-03-11T17:31:23.741Z,99157.28
2023-03-11T17:33:50.619Z,99156.94
2023-03-11T17:36:18.144Z,99163.50
2023-03-11T17:38:46.679Z,99174.91
2023-03-11T17:41:15.736Z,99173.69
2023-03-11T17:43:42.788Z,99171.97
2023-03-11T17:46:12.207Z,99162.59
2023-03-11T17:48:38.543Z,99187.66
2023-03-11T17:51:10.201Z,99179.41
2023-03-11T17:53:38.112Z,99193.56
2023-03-11T17:56:05.643Z,99186.97
2023-03-11T17:58:32.936Z,99196.34
2023-03-11T18:01:02.965Z,99202.06
2023-03-11T18:03:29.295Z,99200.38
2023-03-11T18:05:57.350Z,99203.03
2023-03-11T18:08:23.831Z,99214.09
2023-03-11T18:10:51.590Z,99209.91
2023-03-11T18:13:18.687Z,99210.41
2023-03-11T18:15:45.245Z,99212.19
2023-03-11T18:18:11.870Z,99209.94
2023-03-11T18:20:38.852Z,99211.19
2023-03-11T18:23:05.637Z,99213.06
2023-03-11T18:25:32.232Z,99213.88
2023-03-11T18:27:58.582Z,99220.72
2023-03-11T18:30:25.341Z,99217.94
2023-03-11T18:32:51.706Z,99216.94
2023-03-11T18:35:18.628Z,99217.09
2023-03-11T18:37:45.058Z,99213.44
2023-03-11T18:40:12.099Z,99222.16
2023-03-11T18:42:38.417Z,99218.09
2023-03-11T18:45:05.353Z,99212.00
2023-03-11T18:47:35.460Z,99216.72
2023-03-11T18:50:01.872Z,99221.13
2023-03-11T18:52:28.237Z,99217.38
2023-03-11T18:54:54.582Z,99223.13
2023-03-11T18:57:20.896Z,99212.41
2023-03-11T18:59:48.897Z,99216.22
2023-03-11T19:02:15.208Z,99213.94
2023-03-11T19:04:41.589Z,99217.75
2023-03-11T19:07:08.169Z,99213.84
2023-03-11T19:09:34.567Z,99220.28
2023-03-11T19:12:01.319Z,99225.03
2023-03-11T19:14:28.038Z,99217.75
2023-03-11T19:16:54.389Z,99228.22
2023-03-11T19:19:20.798Z,99227.03
2023-03-11T19:21:47.641Z,99238.44
2023-03-11T19:24:14.504Z,99239.72
2023-03-11T19:26:45.364Z,99238.50
2023-03-11T19:29:13.514Z,99235.09
2023-03-11T19:31:39.951Z,99230.97
2023-03-11T19:34:06.368Z,99227.78
2023-03-11T19:36:32.689Z,99230.41
2023-03-11T19:38:58.993Z,99233.53
2023-03-11T19:41:25.280Z,99235.41
2023-03-11T19:43:52.208Z,99245.66
2023-03-11T19:46:20.651Z,99247.97
2023-03-11T19:48:46.993Z,99240.16
2023-03-11T19:51:13.448Z,99237.59
2023-03-11T19:53:42.735Z,99244.44
2023-03-11T19:56:09.764Z,99253.09
2023-03-11T19:58:36.450Z,99235.94
2023-03-11T20:01:03.227Z,99246.13
2023-03-11T20:03:29.624Z,99258.41
2023-03-11T20:05:57.826Z,99250.56
2023-03-11T20:08:25.487Z,99265.44
2023-03-11T20:10:53.030Z,99271.84
2023-03-11T20:13:20.577Z,99283.31
2023-03-11T20:15:47.442Z,99274.13
2023-03-11T20:18:14.207Z,99293.38
2023-03-11T20:20:42.988Z,99273.06
2023-03-11T20:23:09.480Z,99277.66
2023-03-11T20:25:38.267Z,99275.34
2023-03-11T20:28:04.603Z,99282.88
2023-03-11T20:30:31.084Z,99281.19
2023-03-11T20:32:57.449Z,99270.66
2023-03-11T20:35:24.162Z,99284.94
2023-03-11T20:37:50.632Z,99288.00
2023-03-11T20:40:18.616Z,99280.59
2023-03-11T20:42:47.013Z,99278.81
2023-03-11T20:45:16.016Z,99284.06
2023-03-11T20:47:43.737Z,99283.78
2023-03-11T20:50:12.398Z,99293.34
2023-03-11T20:52:39.070Z,99292.81
2023-03-11T20:55:08.198Z,99283.47
2023-03-11T20:57:35.097Z,99288.59
2023-03-11T21:00:01.599Z,99285.69
2023-03-11T21:02:30.827Z,99281.59
2023-03-11T21:04:57.313Z,99282.84
2023-03-11T21:07:23.813Z,99282.38
2023-03-11T21:09:54.338Z,99285.34
2023-03-11T21:12:21.572Z,99289.06
2023-03-11T21:14:47.985Z,99287.50
2023-03-11T21:17:14.499Z,99286.03
2023-03-11T21:19:40.874Z,99294.19
2023-03-11T21:22:07.315Z,99284.88
2023-03-11T21:24:33.769Z,99292.78
2023-03-11T21:27:00.148Z,99279.91
2023-03-11T21:29:26.476Z,99283.44
2023-03-11T21:31:52.879Z,99282.19
2023-03-11T21:34:19.396Z,99281.09
2023-03-11T21:36:45.821Z,99287.09
2023-03-11T21:39:12.458Z,99281.50
2023-03-11T21:41:39.800Z,99272.94
2023-03-11T21:44:06.189Z,99290.03
2023-03-11T21:46:32.870Z,99282.78
2023-03-11T21:49:00.684Z,99286.28
2023-03-11T21:51:27.208Z,99290.16
2023-03-11T21:53:53.751Z,99278.84
2023-03-11T21:56:20.271Z,99275.25
2023-03-11T21:58:46.687Z,99286.56
2023-03-11T22:01:13.458Z,99295.16
2023-03-11T22:03:40.910Z,99286.28
2023-03-11T22:06:10.509Z,99292.50
2023-03-11T22:08:37.114Z,99294.25
2023-03-11T22:11:07.495Z,99289.41
2023-03-11T22:13:33.914Z,99290.38
2023-03-11T22:16:05.368Z,99291.66
2023-03-11T22:18:32.029Z,99295.28
2023-03-11T22:20:59.440Z,99292.34
2023-03-11T22:23:25.963Z,99295.72
2023-03-11T22:25:52.509Z,99293.34
2023-03-11T22:28:18.904Z,99293.00
2023-03-11T22:30:45.230Z,99281.94
2023-03-11T22:33:11.545Z,99302.28
2023-03-11T22:35:37.860Z,99293.81
2023-03-11T22:38:04.220Z,99290.44
2023-03-11T22:40:30.587Z,99286.22
2023-03-11T22:42:56.924Z,99286.56
2023-03-11T22:45:23.339Z,99289.34
2023-03-11T22:47:50.627Z,99294.00
2023-03-11T22:50:18.143Z,99283.56
2023-03-11T22:52:44.889Z,99290.41
2023-03-11T22:55:11.826Z,99301.28
2023-03-11T22:57:38.860Z,99305.03
2023-03-11T23:00:18.509Z,99305.88
2023-03-11T23:02:46.026Z,99302.13
2023-03-11T23:05:13.932Z,99293.59
2023-03-11T23:07:41.036Z,99289.19
2023-03-11T23:10:09.214Z,99295.47
2023-03-11T23:12:36.650Z,99284.50
2023-03-11T23:15:12.534Z,99290.66
2023-03-11T23:17:39.108Z,99299.31
2023-03-11T23:20:07.675Z,99296.88
2023-03-11T23:22:38.546Z,99294.56
2023-03-11T23:25:07.061Z,99302.16
2023-03-11T23:27:33.415Z,99298.75
2023-03-11T23:29:59.769Z,99292.53
2023-03-11T23:32:26.194Z,99294.59
2023-03-11T23:34:52.587Z,99290.66
2023-03-11T23:37:18.894Z,99283.03
2023-03-11T23:39:45.330Z,99291.63
2023-03-11T23:42:24.532Z,99288.69
2023-03-11T23:44:52.189Z,99292.19
2023-03-11T23:47:18.534Z,99300.84
2023-03-11T23:49:44.884Z,99309.81
2023-03-11T23:52:11.194Z,99304.63
2023-03-11T23:54:37.587Z,99299.75
2023-03-11T23:57:03.912Z,99302.25
2023-03-11T23:59:30.394Z,99296.53
